sensor_id;sensor_type;location;lat;lon;timestamp;P1;durP1;ratioP1;P2;durP2;ratioP2
7233;SDS011;3658;47.992;10.158;2023-02-12T00:01:01;3.10;;;2.80;;
7233;SDS011;3658;47.992;10.158;2023-02-12T00:03:28;4.17;;;3.57;;
7233;SDS011;3658;47.992;10.158;2023-02-12T00:06:00;3.87;;;3.03;;
7233;SDS011;3658;47.992;10.158;2023-02-12T00:08:27;3.40;;;2.77;;
7233;SDS011;3658;47.992;10.158;2023-02-12T00:10:54;3.27;;;2.90;;
7233;SDS011;3658;47.992;10.158;2023-02-12T00:13:21;2.93;;;2.67;;
7233;SDS011;3658;47.992;10.158;2023-02-12T00:15:48;3.20;;;2.80;;
7233;SDS011;3658;47.992;10.158;2023-02-12T00:18:15;3.40;;;3.10;;
7233;SDS011;3658;47.992;10.158;2023-02-12T00:20:42;3.40;;;3.10;;
7233;SDS011;3658;47.992;10.158;2023-02-12T00:23:10;3.73;;;3.17;;
7233;SDS011;3658;47.992;10.158;2023-02-12T00:25:39;3.20;;;2.83;;
7233;SDS011;3658;47.992;10.158;2023-02-12T00:28:07;3.20;;;2.90;;
7233;SDS011;3658;47.992;10.158;2023-02-12T00:30:34;3.27;;;2.97;;
7233;SDS011;3658;47.992;10.158;2023-02-12T00:33:01;3.07;;;2.77;;
7233;SDS011;3658;47.992;10.158;2023-02-12T00:35:28;3.30;;;2.90;;
7233;SDS011;3658;47.992;10.158;2023-02-12T00:37:55;3.23;;;2.80;;
7233;SDS011;3658;47.992;10.158;2023-02-12T00:40:23;2.77;;;2.57;;
7233;SDS011;3658;47.992;10.158;2023-02-12T00:42:50;3.63;;;3.03;;
7233;SDS011;3658;47.992;10.158;2023-02-12T00:45:17;3.27;;;2.80;;
7233;SDS011;3658;47.992;10.158;2023-02-12T00:47:44;3.13;;;2.83;;
7233;SDS011;3658;47.992;10.158;2023-02-12T00:50:11;3.23;;;2.70;;
7233;SDS011;3658;47.992;10.158;2023-02-12T00:52:38;3.07;;;2.77;;
7233;SDS011;3658;47.992;10.158;2023-02-12T00:55:05;3.17;;;2.87;;
7233;SDS011;3658;47.992;10.158;2023-02-12T00:57:33;2.50;;;2.30;;
7233;SDS011;3658;47.992;10.158;2023-02-12T01:00:00;2.57;;;2.30;;
7233;SDS011;3658;47.992;10.158;2023-02-12T01:02:27;3.00;;;2.77;;
7233;SDS011;3658;47.992;10.158;2023-02-12T01:04:54;2.87;;;2.60;;
7233;SDS011;3658;47.992;10.158;2023-02-12T01:07:22;2.93;;;2.67;;
7233;SDS011;3658;47.992;10.158;2023-02-12T01:09:49;2.70;;;2.50;;
7233;SDS011;3658;47.992;10.158;2023-02-12T01:12:16;2.87;;;2.50;;
7233;SDS011;3658;47.992;10.158;2023-02-12T01:14:44;2.77;;;2.50;;
7233;SDS011;3658;47.992;10.158;2023-02-12T01:17:11;2.60;;;2.40;;
7233;SDS011;3658;47.992;10.158;2023-02-12T01:19:38;2.93;;;2.60;;
7233;SDS011;3658;47.992;10.158;2023-02-12T01:22:05;2.93;;;2.27;;
7233;SDS011;3658;47.992;10.158;2023-02-12T01:24:32;3.20;;;2.23;;
7233;SDS011;3658;47.992;10.158;2023-02-12T01:26:59;2.73;;;2.53;;
7233;SDS011;3658;47.992;10.158;2023-02-12T01:29:26;2.33;;;2.13;;
7233;SDS011;3658;47.992;10.158;2023-02-12T01:31:54;2.80;;;2.50;;
7233;SDS011;3658;47.992;10.158;2023-02-12T01:34:21;2.33;;;2.13;;
7233;SDS011;3658;47.992;10.158;2023-02-12T01:36:48;3.10;;;2.67;;
7233;SDS011;3658;47.992;10.158;2023-02-12T01:39:15;2.37;;;2.17;;
7233;SDS011;3658;47.992;10.158;2023-02-12T01:41:43;3.17;;;2.60;;
7233;SDS011;3658;47.992;10.158;2023-02-12T01:44:12;2.30;;;2.10;;
7233;SDS011;3658;47.992;10.158;2023-02-12T01:46:41;2.33;;;2.10;;
7233;SDS011;3658;47.992;10.158;2023-02-12T01:49:12;2.27;;;2.07;;
7233;SDS011;3658;47.992;10.158;2023-02-12T01:51:43;2.50;;;2.30;;
7233;SDS011;3658;47.992;10.158;2023-02-12T01:54:13;2.47;;;2.27;;
7233;SDS011;3658;47.992;10.158;2023-02-12T01:56:42;2.63;;;2.40;;
7233;SDS011;3658;47.992;10.158;2023-02-12T01:59:10;2.67;;;2.47;;
7233;SDS011;3658;47.992;10.158;2023-02-12T02:01:38;2.23;;;2.03;;
7233;SDS011;3658;47.992;10.158;2023-02-12T02:04:06;2.60;;;2.40;;
7233;SDS011;3658;47.992;10.158;2023-02-12T02:06:39;2.53;;;2.33;;
7233;SDS011;3658;47.992;10.158;2023-02-12T02:09:09;2.40;;;2.20;;
7233;SDS011;3658;47.992;10.158;2023-02-12T02:11:36;2.03;;;1.87;;
7233;SDS011;3658;47.992;10.158;2023-02-12T02:14:20;2.50;;;2.30;;
7233;SDS011;3658;47.992;10.158;2023-02-12T02:17:03;2.50;;;2.30;;
7233;SDS011;3658;47.992;10.158;2023-02-12T02:19:46;2.30;;;2.10;;
7233;SDS011;3658;47.992;10.158;2023-02-12T02:22:44;2.30;;;2.10;;
7233;SDS011;3658;47.992;10.158;2023-02-12T02:25:29;2.60;;;2.40;;
7233;SDS011;3658;47.992;10.158;2023-02-12T02:28:13;2.53;;;2.20;;
7233;SDS011;3658;47.992;10.158;2023-02-12T02:30:59;2.20;;;2.00;;
7233;SDS011;3658;47.992;10.158;2023-02-12T02:33:33;2.50;;;2.30;;
7233;SDS011;3658;47.992;10.158;2023-02-12T02:36:09;2.57;;;2.30;;
7233;SDS011;3658;47.992;10.158;2023-02-12T02:38:43;2.20;;;2.00;;
7233;SDS011;3658;47.992;10.158;2023-02-12T02:41:15;2.30;;;2.10;;
7233;SDS011;3658;47.992;10.158;2023-02-12T02:43:47;2.17;;;1.97;;
7233;SDS011;3658;47.992;10.158;2023-02-12T02:46:19;2.40;;;2.20;;
7233;SDS011;3658;47.992;10.158;2023-02-12T02:48:51;1.97;;;1.87;;
7233;SDS011;3658;47.992;10.158;2023-02-12T02:51:23;2.70;;;2.33;;
7233;SDS011;3658;47.992;10.158;2023-02-12T02:53:53;2.40;;;2.20;;
7233;SDS011;3658;47.992;10.158;2023-02-12T02:56:26;1.80;;;1.70;;
7233;SDS011;3658;47.992;10.158;2023-02-12T02:58:57;1.80;;;1.70;;
7233;SDS011;3658;47.992;10.158;2023-02-12T03:01:28;2.63;;;2.20;;
7233;SDS011;3658;47.992;10.158;2023-02-12T03:04:01;2.60;;;2.40;;
7233;SDS011;3658;47.992;10.158;2023-02-12T03:06:32;2.10;;;1.90;;
7233;SDS011;3658;47.992;10.158;2023-02-12T03:09:05;2.07;;;1.87;;
7233;SDS011;3658;47.992;10.158;2023-02-12T03:11:38;2.33;;;2.13;;
7233;SDS011;3658;47.992;10.158;2023-02-12T03:14:07;2.30;;;2.10;;
7233;SDS011;3658;47.992;10.158;2023-02-12T03:16:40;2.30;;;2.10;;
7233;SDS011;3658;47.992;10.158;2023-02-12T03:19:13;2.10;;;1.90;;
7233;SDS011;3658;47.992;10.158;2023-02-12T03:21:46;1.87;;;1.77;;
7233;SDS011;3658;47.992;10.158;2023-02-12T03:24:17;2.23;;;2.03;;
7233;SDS011;3658;47.992;10.158;2023-02-12T03:26:50;2.80;;;2.37;;
7233;SDS011;3658;47.992;10.158;2023-02-12T03:29:19;1.90;;;1.70;;
7233;SDS011;3658;47.992;10.158;2023-02-12T03:31:55;2.10;;;1.90;;
7233;SDS011;3658;47.992;10.158;2023-02-12T03:34:29;2.13;;;1.93;;
7233;SDS011;3658;47.992;10.158;2023-02-12T03:37:04;2.13;;;1.73;;
7233;SDS011;3658;47.992;10.158;2023-02-12T03:39:37;1.83;;;1.73;;
7233;SDS011;3658;47.992;10.158;2023-02-12T03:42:12;2.03;;;1.83;;
7233;SDS011;3658;47.992;10.158;2023-02-12T03:44:46;1.80;;;1.70;;
7233;SDS011;3658;47.992;10.158;2023-02-12T03:47:23;1.90;;;1.80;;
7233;SDS011;3658;47.992;10.158;2023-02-12T03:49:56;1.90;;;1.70;;
7233;SDS011;3658;47.992;10.158;2023-02-12T03:52:28;1.80;;;1.70;;
7233;SDS011;3658;47.992;10.158;2023-02-12T03:54:55;1.97;;;1.83;;
7233;SDS011;3658;47.992;10.158;2023-02-12T03:57:23;2.10;;;1.90;;
7233;SDS011;3658;47.992;10.158;2023-02-12T03:59:54;1.77;;;1.67;;
7233;SDS011;3658;47.992;10.158;2023-02-12T04:02:24;1.90;;;1.70;;
7233;SDS011;3658;47.992;10.158;2023-02-12T04:04:51;2.00;;;1.80;;
7233;SDS011;3658;47.992;10.158;2023-02-12T04:07:18;2.07;;;1.90;;
7233;SDS011;3658;47.992;10.158;2023-02-12T04:09:45;1.70;;;1.60;;
7233;SDS011;3658;47.992;10.158;2023-02-12T04:12:16;1.80;;;1.70;;
7233;SDS011;3658;47.992;10.158;2023-02-12T04:14:59;2.13;;;1.93;;
7233;SDS011;3658;47.992;10.158;2023-02-12T04:17:55;2.00;;;1.80;;
7233;SDS011;3658;47.992;10.158;2023-02-12T04:20:31;1.77;;;1.67;;
7233;SDS011;3658;47.992;10.158;2023-02-12T04:23:07;1.77;;;1.67;;
7233;SDS011;3658;47.992;10.158;2023-02-12T04:25:44;1.87;;;1.77;;
7233;SDS011;3658;47.992;10.158;2023-02-12T04:28:21;1.80;;;1.70;;
7233;SDS011;3658;47.992;10.158;2023-02-12T04:30:54;2.10;;;1.90;;
7233;SDS011;3658;47.992;10.158;2023-02-12T04:33:26;2.20;;;1.93;;
7233;SDS011;3658;47.992;10.158;2023-02-12T04:36:00;1.77;;;1.67;;
7233;SDS011;3658;47.992;10.158;2023-02-12T04:38:32;1.70;;;1.60;;
7233;SDS011;3658;47.992;10.158;2023-02-12T04:41:03;1.60;;;1.50;;
7233;SDS011;3658;47.992;10.158;2023-02-12T04:43:32;2.67;;;1.90;;
7233;SDS011;3658;47.992;10.158;2023-02-12T04:46:00;1.60;;;1.50;;
7233;SDS011;3658;47.992;10.158;2023-02-12T04:48:29;1.97;;;1.50;;
7233;SDS011;3658;47.992;10.158;2023-02-12T04:50:58;2.23;;;2.03;;
7233;SDS011;3658;47.992;10.158;2023-02-12T04:53:25;2.67;;;2.43;;
7233;SDS011;3658;47.992;10.158;2023-02-12T04:55:53;4.33;;;3.07;;
7233;SDS011;3658;47.992;10.158;2023-02-12T04:58:22;4.63;;;2.93;;
7233;SDS011;3658;47.992;10.158;2023-02-12T05:00:49;3.53;;;3.00;;
7233;SDS011;3658;47.992;10.158;2023-02-12T05:03:15;3.70;;;3.03;;
7233;SDS011;3658;47.992;10.158;2023-02-12T05:05:44;4.70;;;3.40;;
7233;SDS011;3658;47.992;10.158;2023-02-12T05:08:11;3.37;;;2.80;;
7233;SDS011;3658;47.992;10.158;2023-02-12T05:10:38;4.00;;;3.17;;
7233;SDS011;3658;47.992;10.158;2023-02-12T05:13:04;4.47;;;2.70;;
7233;SDS011;3658;47.992;10.158;2023-02-12T05:15:33;6.70;;;3.50;;
7233;SDS011;3658;47.992;10.158;2023-02-12T05:18:00;3.83;;;3.10;;
7233;SDS011;3658;47.992;10.158;2023-02-12T05:20:26;5.77;;;3.20;;
7233;SDS011;3658;47.992;10.158;2023-02-12T05:22:55;5.70;;;3.23;;
7233;SDS011;3658;47.992;10.158;2023-02-12T05:25:22;4.70;;;2.90;;
7233;SDS011;3658;47.992;10.158;2023-02-12T05:27:49;3.20;;;2.90;;
7233;SDS011;3658;47.992;10.158;2023-02-12T05:30:16;5.17;;;3.17;;
7233;SDS011;3658;47.992;10.158;2023-02-12T05:32:43;4.23;;;2.90;;
7233;SDS011;3658;47.992;10.158;2023-02-12T05:35:10;3.47;;;2.63;;
7233;SDS011;3658;47.992;10.158;2023-02-12T05:37:36;3.50;;;3.20;;
7233;SDS011;3658;47.992;10.158;2023-02-12T05:40:05;3.53;;;3.20;;
7233;SDS011;3658;47.992;10.158;2023-02-12T05:42:33;5.73;;;3.30;;
7233;SDS011;3658;47.992;10.158;2023-02-12T05:45:00;3.70;;;3.03;;
7233;SDS011;3658;47.992;10.158;2023-02-12T05:47:27;3.87;;;2.80;;
7233;SDS011;3658;47.992;10.158;2023-02-12T05:49:54;3.87;;;3.10;;
7233;SDS011;3658;47.992;10.158;2023-02-12T05:52:21;4.63;;;3.27;;
7233;SDS011;3658;47.992;10.158;2023-02-12T05:54:48;3.50;;;2.90;;
7233;SDS011;3658;47.992;10.158;2023-02-12T05:57:16;4.40;;;2.77;;
7233;SDS011;3658;47.992;10.158;2023-02-12T05:59:43;3.20;;;2.90;;
7233;SDS011;3658;47.992;10.158;2023-02-12T06:02:10;5.87;;;2.83;;
7233;SDS011;3658;47.992;10.158;2023-02-12T06:04:37;4.33;;;2.90;;
7233;SDS011;3658;47.992;10.158;2023-02-12T06:07:04;4.13;;;2.60;;
7233;SDS011;3658;47.992;10.158;2023-02-12T06:09:32;5.17;;;3.33;;
7233;SDS011;3658;47.992;10.158;2023-02-12T06:12:00;4.33;;;3.10;;
7233;SDS011;3658;47.992;10.158;2023-02-12T06:14:28;3.10;;;2.77;;
7233;SDS011;3658;47.992;10.158;2023-02-12T06:16:55;3.70;;;3.20;;
7233;SDS011;3658;47.992;10.158;2023-02-12T06:19:22;4.70;;;3.30;;
7233;SDS011;3658;47.992;10.158;2023-02-12T06:21:49;3.27;;;2.73;;
7233;SDS011;3658;47.992;10.158;2023-02-12T06:24:16;2.80;;;2.60;;
7233;SDS011;3658;47.992;10.158;2023-02-12T06:26:44;4.13;;;3.30;;
7233;SDS011;3658;47.992;10.158;2023-02-12T06:29:11;5.80;;;3.03;;
7233;SDS011;3658;47.992;10.158;2023-02-12T06:31:39;3.73;;;3.33;;
7233;SDS011;3658;47.992;10.158;2023-02-12T06:34:07;3.87;;;3.00;;
7233;SDS011;3658;47.992;10.158;2023-02-12T06:36:36;3.67;;;3.00;;
7233;SDS011;3658;47.992;10.158;2023-02-12T06:39:05;3.90;;;2.97;;
7233;SDS011;3658;47.992;10.158;2023-02-12T06:41:32;3.30;;;2.97;;
7233;SDS011;3658;47.992;10.158;2023-02-12T06:43:59;4.03;;;3.07;;
7233;SDS011;3658;47.992;10.158;2023-02-12T06:46:26;3.73;;;2.97;;
7233;SDS011;3658;47.992;10.158;2023-02-12T06:48:55;3.03;;;2.73;;
7233;SDS011;3658;47.992;10.158;2023-02-12T06:51:24;3.33;;;2.57;;
7233;SDS011;3658;47.992;10.158;2023-02-12T06:53:54;3.57;;;2.90;;
7233;SDS011;3658;47.992;10.158;2023-02-12T06:56:22;2.90;;;2.60;;
7233;SDS011;3658;47.992;10.158;2023-02-12T06:58:51;2.90;;;2.63;;
7233;SDS011;3658;47.992;10.158;2023-02-12T07:01:20;3.67;;;3.00;;
7233;SDS011;3658;47.992;10.158;2023-02-12T07:03:50;3.90;;;3.10;;
7233;SDS011;3658;47.992;10.158;2023-02-12T07:06:19;3.10;;;2.80;;
7233;SDS011;3658;47.992;10.158;2023-02-12T07:08:47;3.07;;;2.77;;
7233;SDS011;3658;47.992;10.158;2023-02-12T07:11:15;3.20;;;2.90;;
7233;SDS011;3658;47.992;10.158;2023-02-12T07:13:43;3.57;;;3.27;;
7233;SDS011;3658;47.992;10.158;2023-02-12T07:16:12;3.57;;;3.27;;
7233;SDS011;3658;47.992;10.158;2023-02-12T07:18:40;3.23;;;2.93;;
7233;SDS011;3658;47.992;10.158;2023-02-12T07:21:08;3.33;;;3.03;;
7233;SDS011;3658;47.992;10.158;2023-02-12T07:23:37;5.30;;;3.30;;
7233;SDS011;3658;47.992;10.158;2023-02-12T07:26:05;3.30;;;3.00;;
7233;SDS011;3658;47.992;10.158;2023-02-12T07:28:33;3.93;;;3.23;;
7233;SDS011;3658;47.992;10.158;2023-02-12T07:31:05;6.17;;;3.43;;
7233;SDS011;3658;47.992;10.158;2023-02-12T07:33:33;3.33;;;3.00;;
7233;SDS011;3658;47.992;10.158;2023-02-12T07:36:00;3.97;;;3.27;;
7233;SDS011;3658;47.992;10.158;2023-02-12T07:38:28;4.00;;;3.37;;
7233;SDS011;3658;47.992;10.158;2023-02-12T07:41:04;3.50;;;3.10;;
7233;SDS011;3658;47.992;10.158;2023-02-12T07:43:32;3.47;;;3.17;;
7233;SDS011;3658;47.992;10.158;2023-02-12T07:46:04;3.87;;;3.33;;
7233;SDS011;3658;47.992;10.158;2023-02-12T07:48:32;3.40;;;3.10;;
7233;SDS011;3658;47.992;10.158;2023-02-12T07:51:01;5.07;;;3.00;;
7233;SDS011;3658;47.992;10.158;2023-02-12T07:53:30;3.80;;;3.40;;
7233;SDS011;3658;47.992;10.158;2023-02-12T07:56:04;3.50;;;3.20;;
7233;SDS011;3658;47.992;10.158;2023-02-12T07:58:32;4.13;;;3.33;;
7233;SDS011;3658;47.992;10.158;2023-02-12T08:01:00;3.87;;;3.17;;
7233;SDS011;3658;47.992;10.158;2023-02-12T08:03:36;5.77;;;3.63;;
7233;SDS011;3658;47.992;10.158;2023-02-12T08:06:05;4.73;;;3.63;;
7233;SDS011;3658;47.992;10.158;2023-02-12T08:08:33;6.17;;;3.37;;
7233;SDS011;3658;47.992;10.158;2023-02-12T08:11:03;4.20;;;3.63;;
7233;SDS011;3658;47.992;10.158;2023-02-12T08:13:32;6.60;;;3.43;;
7233;SDS011;3658;47.992;10.158;2023-02-12T08:16:00;6.97;;;3.30;;
7233;SDS011;3658;47.992;10.158;2023-02-12T08:18:27;3.67;;;3.20;;
7233;SDS011;3658;47.992;10.158;2023-02-12T08:20:59;4.63;;;3.37;;
7233;SDS011;3658;47.992;10.158;2023-02-12T08:23:27;4.07;;;3.30;;
7233;SDS011;3658;47.992;10.158;2023-02-12T08:25:55;6.47;;;3.00;;
7233;SDS011;3658;47.992;10.158;2023-02-12T08:28:36;3.77;;;3.23;;
7233;SDS011;3658;47.992;10.158;2023-02-12T08:31:04;3.50;;;3.20;;
7233;SDS011;3658;47.992;10.158;2023-02-12T08:33:33;3.63;;;3.07;;
7233;SDS011;3658;47.992;10.158;2023-02-12T08:36:01;4.47;;;3.10;;
7233;SDS011;3658;47.992;10.158;2023-02-12T08:38:30;4.80;;;3.70;;
7233;SDS011;3658;47.992;10.158;2023-02-12T08:40:59;3.70;;;3.40;;
7233;SDS011;3658;47.992;10.158;2023-02-12T08:43:29;4.33;;;3.40;;
7233;SDS011;3658;47.992;10.158;2023-02-12T08:46:00;4.20;;;3.47;;
7233;SDS011;3658;47.992;10.158;2023-02-12T08:48:28;3.60;;;3.17;;
7233;SDS011;3658;47.992;10.158;2023-02-12T08:50:55;4.00;;;3.43;;
7233;SDS011;3658;47.992;10.158;2023-02-12T08:53:22;3.60;;;3.30;;
7233;SDS011;3658;47.992;10.158;2023-02-12T08:55:49;3.70;;;3.23;;
7233;SDS011;3658;47.992;10.158;2023-02-12T08:58:16;3.60;;;3.30;;
7233;SDS011;3658;47.992;10.158;2023-02-12T09:00:44;4.60;;;3.10;;
7233;SDS011;3658;47.992;10.158;2023-02-12T09:03:11;3.80;;;3.27;;
7233;SDS011;3658;47.992;10.158;2023-02-12T09:05:38;4.10;;;3.33;;
7233;SDS011;3658;47.992;10.158;2023-02-12T09:08:05;3.47;;;2.80;;
7233;SDS011;3658;47.992;10.158;2023-02-12T09:10:33;3.73;;;3.40;;
7233;SDS011;3658;47.992;10.158;2023-02-12T09:13:04;3.57;;;3.27;;
7233;SDS011;3658;47.992;10.158;2023-02-12T09:15:35;4.43;;;3.40;;
7233;SDS011;3658;47.992;10.158;2023-02-12T09:18:04;4.10;;;3.67;;
7233;SDS011;3658;47.992;10.158;2023-02-12T09:20:31;3.40;;;2.90;;
7233;SDS011;3658;47.992;10.158;2023-02-12T09:22:59;5.77;;;3.53;;
7233;SDS011;3658;47.992;10.158;2023-02-12T09:25:26;4.03;;;3.30;;
7233;SDS011;3658;47.992;10.158;2023-02-12T09:27:53;3.80;;;3.37;;
7233;SDS011;3658;47.992;10.158;2023-02-12T09:30:20;3.37;;;2.87;;
7233;SDS011;3658;47.992;10.158;2023-02-12T09:32:48;3.33;;;3.00;;
7233;SDS011;3658;47.992;10.158;2023-02-12T09:35:16;3.23;;;2.93;;
7233;SDS011;3658;47.992;10.158;2023-02-12T09:37:43;3.47;;;3.13;;
7233;SDS011;3658;47.992;10.158;2023-02-12T09:40:15;3.53;;;2.70;;
7233;SDS011;3658;47.992;10.158;2023-02-12T09:42:51;3.23;;;2.93;;
7233;SDS011;3658;47.992;10.158;2023-02-12T09:45:29;4.17;;;3.27;;
7233;SDS011;3658;47.992;10.158;2023-02-12T09:48:02;3.37;;;3.07;;
7233;SDS011;3658;47.992;10.158;2023-02-12T09:50:43;3.93;;;3.13;;
7233;SDS011;3658;47.992;10.158;2023-02-12T09:53:15;3.47;;;3.10;;
7233;SDS011;3658;47.992;10.158;2023-02-12T09:55:46;4.13;;;3.40;;
7233;SDS011;3658;47.992;10.158;2023-02-12T09:58:14;3.93;;;3.53;;
7233;SDS011;3658;47.992;10.158;2023-02-12T10:00:45;6.23;;;3.50;;
7233;SDS011;3658;47.992;10.158;2023-02-12T10:03:13;4.00;;;3.20;;
7233;SDS011;3658;47.992;10.158;2023-02-12T10:05:44;5.53;;;2.63;;
7233;SDS011;3658;47.992;10.158;2023-02-12T10:08:19;3.90;;;2.83;;
7233;SDS011;3658;47.992;10.158;2023-02-12T10:10:59;3.87;;;3.17;;
7233;SDS011;3658;47.992;10.158;2023-02-12T10:13:40;4.03;;;2.63;;
7233;SDS011;3658;47.992;10.158;2023-02-12T10:16:13;2.80;;;2.53;;
7233;SDS011;3658;47.992;10.158;2023-02-12T10:21:42;2.67;;;2.47;;
7233;SDS011;3658;47.992;10.158;2023-02-12T10:24:21;3.20;;;2.40;;
7233;SDS011;3658;47.992;10.158;2023-02-12T10:27:08;3.00;;;2.70;;
7233;SDS011;3658;47.992;10.158;2023-02-12T10:29:40;3.10;;;2.67;;
7233;SDS011;3658;47.992;10.158;2023-02-12T10:32:11;3.07;;;2.73;;
7233;SDS011;3658;47.992;10.158;2023-02-12T10:34:43;3.10;;;2.63;;
7233;SDS011;3658;47.992;10.158;2023-02-12T10:37:14;4.20;;;2.87;;
7233;SDS011;3658;47.992;10.158;2023-02-12T10:39:47;3.57;;;2.73;;
7233;SDS011;3658;47.992;10.158;2023-02-12T10:42:20;3.13;;;2.73;;
7233;SDS011;3658;47.992;10.158;2023-02-12T10:44:50;3.90;;;3.17;;
7233;SDS011;3658;47.992;10.158;2023-02-12T10:47:17;2.90;;;2.37;;
7233;SDS011;3658;47.992;10.158;2023-02-12T10:49:47;3.00;;;2.50;;
7233;SDS011;3658;47.992;10.158;2023-02-12T10:52:23;3.67;;;2.80;;
7233;SDS011;3658;47.992;10.158;2023-02-12T10:55:01;4.40;;;3.17;;
7233;SDS011;3658;47.992;10.158;2023-02-12T10:57:28;3.67;;;3.13;;
7233;SDS011;3658;47.992;10.158;2023-02-12T11:00:12;3.67;;;3.20;;
7233;SDS011;3658;47.992;10.158;2023-02-12T11:02:58;4.90;;;3.43;;
7233;SDS011;3658;47.992;10.158;2023-02-12T11:05:31;4.73;;;2.97;;
7233;SDS011;3658;47.992;10.158;2023-02-12T11:08:02;6.17;;;2.87;;
7233;SDS011;3658;47.992;10.158;2023-02-12T11:10:30;3.70;;;3.00;;
7233;SDS011;3658;47.992;10.158;2023-02-12T11:13:01;3.10;;;2.80;;
7233;SDS011;3658;47.992;10.158;2023-02-12T11:15:29;5.67;;;2.80;;
7233;SDS011;3658;47.992;10.158;2023-02-12T11:18:03;4.13;;;3.30;;
7233;SDS011;3658;47.992;10.158;2023-02-12T11:20:33;4.00;;;2.90;;
7233;SDS011;3658;47.992;10.158;2023-02-12T11:23:05;4.63;;;3.17;;
7233;SDS011;3658;47.992;10.158;2023-02-12T11:25:53;5.33;;;3.60;;
7233;SDS011;3658;47.992;10.158;2023-02-12T11:28:22;4.23;;;2.97;;
7233;SDS011;3658;47.992;10.158;2023-02-12T11:30:53;4.07;;;3.27;;
7233;SDS011;3658;47.992;10.158;2023-02-12T11:33:22;3.90;;;3.50;;
7233;SDS011;3658;47.992;10.158;2023-02-12T11:35:56;3.83;;;3.43;;
7233;SDS011;3658;47.992;10.158;2023-02-12T11:38:30;3.80;;;3.50;;
7233;SDS011;3658;47.992;10.158;2023-02-12T11:41:01;4.37;;;3.80;;
7233;SDS011;3658;47.992;10.158;2023-02-12T11:43:33;4.37;;;3.40;;
7233;SDS011;3658;47.992;10.158;2023-02-12T11:46:03;5.03;;;3.90;;
7233;SDS011;3658;47.992;10.158;2023-02-12T11:48:34;5.43;;;4.30;;
7233;SDS011;3658;47.992;10.158;2023-02-12T11:51:05;4.80;;;3.43;;
7233;SDS011;3658;47.992;10.158;2023-02-12T11:53:36;4.07;;;3.67;;
7233;SDS011;3658;47.992;10.158;2023-02-12T11:56:06;4.10;;;3.70;;
7233;SDS011;3658;47.992;10.158;2023-02-12T11:58:35;5.00;;;3.87;;
7233;SDS011;3658;47.992;10.158;2023-02-12T12:01:04;4.37;;;3.70;;
7233;SDS011;3658;47.992;10.158;2023-02-12T12:03:39;8.70;;;6.40;;
7233;SDS011;3658;47.992;10.158;2023-02-12T12:06:17;8.60;;;6.13;;
7233;SDS011;3658;47.992;10.158;2023-02-12T12:09:01;8.97;;;5.97;;
7233;SDS011;3658;47.992;10.158;2023-02-12T12:11:37;5.17;;;4.67;;
7233;SDS011;3658;47.992;10.158;2023-02-12T12:14:13;7.83;;;5.00;;
7233;SDS011;3658;47.992;10.158;2023-02-12T12:16:48;11.60;;;5.10;;
7233;SDS011;3658;47.992;10.158;2023-02-12T12:19:37;8.60;;;3.93;;
7233;SDS011;3658;47.992;10.158;2023-02-12T12:22:21;8.10;;;3.60;;
7233;SDS011;3658;47.992;10.158;2023-02-12T12:24:59;4.90;;;3.67;;
7233;SDS011;3658;47.992;10.158;2023-02-12T12:27:34;5.80;;;3.47;;
7233;SDS011;3658;47.992;10.158;2023-02-12T12:30:24;4.47;;;3.30;;
7233;SDS011;3658;47.992;10.158;2023-02-12T12:33:02;4.37;;;3.30;;
7233;SDS011;3658;47.992;10.158;2023-02-12T12:35:37;5.57;;;3.60;;
7233;SDS011;3658;47.992;10.158;2023-02-12T12:38:13;5.00;;;3.57;;
7233;SDS011;3658;47.992;10.158;2023-02-12T12:40:56;3.77;;;3.33;;
7233;SDS011;3658;47.992;10.158;2023-02-12T12:43:32;3.20;;;2.90;;
7233;SDS011;3658;47.992;10.158;2023-02-12T12:46:15;7.23;;;3.97;;
7233;SDS011;3658;47.992;10.158;2023-02-12T12:49:02;4.23;;;3.07;;
7233;SDS011;3658;47.992;10.158;2023-02-12T12:51:52;5.47;;;2.70;;
7233;SDS011;3658;47.992;10.158;2023-02-12T12:54:39;3.60;;;3.00;;
7233;SDS011;3658;47.992;10.158;2023-02-12T12:57:21;3.97;;;2.77;;
7233;SDS011;3658;47.992;10.158;2023-02-12T13:00:05;6.97;;;3.37;;
7233;SDS011;3658;47.992;10.158;2023-02-12T13:05:57;3.47;;;2.70;;
7233;SDS011;3658;47.992;10.158;2023-02-12T13:08:38;3.27;;;2.80;;
7233;SDS011;3658;47.992;10.158;2023-02-12T13:11:31;4.63;;;2.70;;
7233;SDS011;3658;47.992;10.158;2023-02-12T13:14:11;3.23;;;2.40;;
7233;SDS011;3658;47.992;10.158;2023-02-12T13:16:50;3.33;;;2.50;;
7233;SDS011;3658;47.992;10.158;2023-02-12T13:19:27;3.93;;;2.53;;
7233;SDS011;3658;47.992;10.158;2023-02-12T13:22:04;3.77;;;2.80;;
7233;SDS011;3658;47.992;10.158;2023-02-12T13:24:37;3.67;;;2.67;;
7233;SDS011;3658;47.992;10.158;2023-02-12T13:27:11;2.73;;;2.43;;
7233;SDS011;3658;47.992;10.158;2023-02-12T13:29:46;3.57;;;2.30;;
7233;SDS011;3658;47.992;10.158;2023-02-12T13:32:18;3.17;;;2.67;;
7233;SDS011;3658;47.992;10.158;2023-02-12T13:34:50;2.70;;;2.33;;
7233;SDS011;3658;47.992;10.158;2023-02-12T13:37:24;4.57;;;2.57;;
7233;SDS011;3658;47.992;10.158;2023-02-12T13:40:01;2.23;;;2.03;;
7233;SDS011;3658;47.992;10.158;2023-02-12T13:42:37;2.90;;;2.47;;
7233;SDS011;3658;47.992;10.158;2023-02-12T13:45:20;4.03;;;2.23;;
7233;SDS011;3658;47.992;10.158;2023-02-12T13:48:04;5.17;;;2.37;;
7233;SDS011;3658;47.992;10.158;2023-02-12T13:50:43;4.10;;;2.33;;
7233;SDS011;3658;47.992;10.158;2023-02-12T13:53:18;4.37;;;2.30;;
7233;SDS011;3658;47.992;10.158;2023-02-12T13:55:56;2.50;;;2.17;;
7233;SDS011;3658;47.992;10.158;2023-02-12T13:58:39;4.63;;;2.50;;
7233;SDS011;3658;47.992;10.158;2023-02-12T14:04:13;2.80;;;2.20;;
7233;SDS011;3658;47.992;10.158;2023-02-12T14:06:54;4.67;;;1.90;;
7233;SDS011;3658;47.992;10.158;2023-02-12T14:09:26;3.13;;;2.23;;
7233;SDS011;3658;47.992;10.158;2023-02-12T14:11:58;3.30;;;2.00;;
7233;SDS011;3658;47.992;10.158;2023-02-12T14:14:27;2.30;;;2.10;;
7233;SDS011;3658;47.992;10.158;2023-02-12T14:16:59;4.30;;;2.10;;
7233;SDS011;3658;47.992;10.158;2023-02-12T14:20:07;2.90;;;2.10;;
7233;SDS011;3658;47.992;10.158;2023-02-12T14:22:59;3.03;;;2.10;;
7233;SDS011;3658;47.992;10.158;2023-02-12T14:25:39;3.87;;;2.10;;
7233;SDS011;3658;47.992;10.158;2023-02-12T14:37:30;3.13;;;2.00;;
7233;SDS011;3658;47.992;10.158;2023-02-12T14:42:56;3.93;;;2.30;;
7233;SDS011;3658;47.992;10.158;2023-02-12T14:45:27;4.47;;;2.47;;
7233;SDS011;3658;47.992;10.158;2023-02-12T14:47:57;3.77;;;1.93;;
7233;SDS011;3658;47.992;10.158;2023-02-12T14:50:25;5.13;;;2.23;;
7233;SDS011;3658;47.992;10.158;2023-02-12T14:52:59;4.57;;;2.23;;
7233;SDS011;3658;47.992;10.158;2023-02-12T14:55:31;5.50;;;2.70;;
7233;SDS011;3658;47.992;10.158;2023-02-12T14:58:01;4.63;;;2.30;;
7233;SDS011;3658;47.992;10.158;2023-02-12T15:00:32;4.50;;;2.20;;
7233;SDS011;3658;47.992;10.158;2023-02-12T15:03:15;2.40;;;1.67;;
7233;SDS011;3658;47.992;10.158;2023-02-12T15:05:48;3.23;;;1.93;;
7233;SDS011;3658;47.992;10.158;2023-02-12T15:08:24;2.70;;;1.93;;
7233;SDS011;3658;47.992;10.158;2023-02-12T15:10:57;2.67;;;2.17;;
7233;SDS011;3658;47.992;10.158;2023-02-12T15:13:33;4.73;;;1.90;;
7233;SDS011;3658;47.992;10.158;2023-02-12T15:16:12;3.20;;;2.10;;
7233;SDS011;3658;47.992;10.158;2023-02-12T15:18:49;3.13;;;1.80;;
7233;SDS011;3658;47.992;10.158;2023-02-12T15:21:22;2.60;;;1.73;;
7233;SDS011;3658;47.992;10.158;2023-02-12T15:24:03;4.50;;;1.73;;
7233;SDS011;3658;47.992;10.158;2023-02-12T15:26:36;3.57;;;1.90;;
7233;SDS011;3658;47.992;10.158;2023-02-12T15:29:06;1.97;;;1.70;;
7233;SDS011;3658;47.992;10.158;2023-02-12T15:31:48;3.30;;;2.43;;
7233;SDS011;3658;47.992;10.158;2023-02-12T15:34:17;5.83;;;1.77;;
7233;SDS011;3658;47.992;10.158;2023-02-12T15:36:47;1.83;;;1.73;;
7233;SDS011;3658;47.992;10.158;2023-02-12T15:39:17;2.97;;;1.80;;
7233;SDS011;3658;47.992;10.158;2023-02-12T15:41:46;1.90;;;1.67;;
7233;SDS011;3658;47.992;10.158;2023-02-12T15:44:19;2.03;;;1.70;;
7233;SDS011;3658;47.992;10.158;2023-02-12T15:46:55;1.90;;;1.70;;
7233;SDS011;3658;47.992;10.158;2023-02-12T15:49:27;2.57;;;1.70;;